createdAt,value
2023-01-19T00:01:42.722Z,14.4
2023-01-19T00:07:05.211Z,14.1
2023-01-19T00:12:28.084Z,14.4
2023-01-19T00:17:52.183Z,14.4
2023-01-19T00:22:45.526Z,14.3
2023-01-19T00:28:08.797Z,14.1
2023-01-19T00:33:32.140Z,14.2
2023-01-19T00:38:54.965Z,14.4
2023-01-19T00:44:16.377Z,14.1
2023-01-19T00:49:39.311Z,14.2
2023-01-19T00:55:02.800Z,14.1
2023-01-19T01:00:25.325Z,14.3
2023-01-19T01:06:03.479Z,14.3
2023-01-19T01:11:10.116Z,14.6
2023-01-19T01:17:07.035Z,14.8
2023-01-19T01:22:30.553Z,14.4
2023-01-19T01:27:56.171Z,14.3
2023-01-19T01:33:39.748Z,14.3
2023-01-19T01:39:03.066Z,14.4
2023-01-19T01:49:32.686Z,14.3
2023-01-19T01:55:09.242Z,14.6
2023-01-19T02:00:15.779Z,14.4
2023-01-19T02:05:41.013Z,14.6
2023-01-19T02:11:04.514Z,14.8
2023-01-19T02:16:27.053Z,14.5
2023-01-19T02:21:33.359Z,14.7
2023-01-19T02:26:56.521Z,14.6
2023-01-19T02:32:19.343Z,14.6
2023-01-19T02:37:42.246Z,14.6
2023-01-19T02:43:05.459Z,14.8
2023-01-19T02:48:27.939Z,14.9
2023-01-19T02:53:51.167Z,14.9
2023-01-19T02:59:13.883Z,15
2023-01-19T03:04:37.068Z,14.9
2023-01-19T03:09:43.698Z,14.9
2023-01-19T03:14:52.450Z,14.8
2023-01-19T03:20:15.209Z,14.6
2023-01-19T03:25:37.653Z,14.8
2023-01-19T03:31:00.982Z,14.9
2023-01-19T03:36:23.496Z,14.7
2023-01-19T03:41:30.138Z,14.8
2023-01-19T03:46:53.652Z,14.8
2023-01-19T03:52:16.202Z,14.6
2023-01-19T03:57:38.217Z,14.8
2023-01-19T04:03:01.829Z,14.6
2023-01-19T04:08:24.391Z,14.6
2023-01-19T04:13:46.309Z,14.8
2023-01-19T04:19:09.461Z,14.8
2023-01-19T04:24:32.997Z,14.8
2023-01-19T04:29:55.650Z,14.8
2023-01-19T04:35:19.040Z,14.9
2023-01-19T04:40:28.549Z,14.8
2023-01-19T04:45:51.232Z,14.7
2023-01-19T04:51:00.301Z,14.7
2023-01-19T04:56:07.933Z,15.3
2023-01-19T05:01:30.731Z,15.2
2023-01-19T05:06:54.113Z,14.9
2023-01-19T05:12:00.495Z,14.8
2023-01-19T05:17:07.514Z,14.8
2023-01-19T05:22:32.992Z,14.8
2023-01-19T05:27:40.546Z,14.7
2023-01-19T05:32:48.858Z,14.8
2023-01-19T05:38:34.430Z,14.7
2023-01-19T05:43:58.697Z,15.1
2023-01-19T05:49:21.596Z,15.1
2023-01-19T05:54:44.736Z,14.8
2023-01-19T06:00:07.303Z,14.7
2023-01-19T06:05:30.651Z,15.1
2023-01-19T06:10:56.574Z,15
2023-01-19T06:16:03.228Z,15.1
2023-01-19T06:21:26.172Z,15.1
2023-01-19T06:26:50.902Z,14.9
2023-01-19T06:32:13.618Z,14.9
2023-01-19T06:37:36.509Z,15.3
2023-01-19T06:42:59.677Z,15.3
2023-01-19T06:48:22.213Z,15.1
2023-01-19T06:53:29.729Z,14.9
2023-01-19T06:58:58.442Z,15
2023-01-19T07:04:46.469Z,15.1
2023-01-19T07:10:10.708Z,15.4
2023-01-19T07:16:33.429Z,15.4
2023-01-19T07:21:56.663Z,15.8
2023-01-19T07:27:18.993Z,15.7
2023-01-19T07:32:42.635Z,15.8
2023-01-19T07:38:05.535Z,15.8
2023-01-19T07:43:28.441Z,15.9
2023-01-19T07:48:51.175Z,16.1
2023-01-19T07:54:13.480Z,16.2
2023-01-19T07:59:35.969Z,16.3
2023-01-19T08:05:00.705Z,16.4
2023-01-19T08:10:23.515Z,16.4
2023-01-19T08:15:30.601Z,16.6
2023-01-19T08:20:53.783Z,16.8
2023-01-19T08:26:19.086Z,16.8
2023-01-19T08:37:02.396Z,17.2
2023-01-19T08:42:24.831Z,17.1
2023-01-19T08:47:56.521Z,17.1
2023-01-19T08:53:19.589Z,17.3
2023-01-19T08:58:42.225Z,17.3
2023-01-19T09:04:01.059Z,17.2
2023-01-19T09:09:09.525Z,17.3
2023-01-19T09:14:31.966Z,17.3
2023-01-19T09:19:55.413Z,17.3
2023-01-19T09:25:18.268Z,17.4
2023-01-19T09:30:40.838Z,17.4
2023-01-19T09:36:04.165Z,17.4
2023-01-19T09:41:28.155Z,17.7
2023-01-19T09:46:50.993Z,17.7
2023-01-19T09:52:13.806Z,17.9
2023-01-19T09:57:36.873Z,17.8
2023-01-19T10:03:03.693Z,17.9
2023-01-19T10:08:25.640Z,17.7
2023-01-19T10:14:00.061Z,18
2023-01-19T10:19:07.273Z,17.8
2023-01-19T10:24:33.535Z,17.6
2023-01-19T10:29:56.323Z,17.7
2023-01-19T10:35:20.965Z,18.1
2023-01-19T10:40:45.603Z,17.7
2023-01-19T10:45:53.590Z,17.4
2023-01-19T10:51:16.542Z,17.5
2023-01-19T10:56:08.663Z,17.6
2023-01-19T11:01:00.237Z,17.3
2023-01-19T11:11:31.620Z,16.8
2023-01-19T11:16:53.966Z,16.8
2023-01-19T11:22:16.626Z,16.9
2023-01-19T11:27:38.770Z,17.3
2023-01-19T11:33:02.840Z,17.3
2023-01-19T11:38:25.636Z,17.3
2023-01-19T11:44:00.180Z,17.5
2023-01-19T11:49:10.180Z,17.4
2023-01-19T11:54:18.149Z,17.3
2023-01-19T11:59:09.269Z,17.3
2023-01-19T12:04:17.436Z,17.3
2023-01-19T12:09:24.682Z,17.2
2023-01-19T12:14:47.464Z,17.6
2023-01-19T12:20:11.785Z,17.1
2023-01-19T12:25:37.397Z,17.2
2023-01-19T12:31:01.047Z,17.2
2023-01-19T12:36:10.217Z,17.3
2023-01-19T12:41:33.599Z,17.2
2023-01-19T12:46:56.490Z,17.1
2023-01-19T12:52:23.844Z,17.2
2023-01-19T12:57:48.092Z,17.3
2023-01-19T13:03:11.097Z,17.2
2023-01-19T13:08:34.039Z,16.9
2023-01-19T13:14:02.264Z,16.9
2023-01-19T13:19:24.702Z,16.9
2023-01-19T13:24:47.293Z,16.9
2023-01-19T13:30:10.011Z,16.9
2023-01-19T13:35:33.447Z,17.1
2023-01-19T13:40:56.725Z,17.2
2023-01-19T13:46:07.713Z,17.4
2023-01-19T13:51:31.227Z,17.4
2023-01-19T13:56:56.210Z,17.5
2023-01-19T14:02:21.082Z,17.4
2023-01-19T14:07:44.372Z,17.3
2023-01-19T14:13:16.018Z,17.2
2023-01-19T14:18:40.349Z,16.9
2023-01-19T14:24:03.251Z,16.8
2023-01-19T14:29:25.879Z,16.7
2023-01-19T14:34:48.979Z,16.6
2023-01-19T14:39:56.205Z,16.6
2023-01-19T14:45:19.439Z,16.3
2023-01-19T14:50:48.341Z,16
2023-01-19T14:56:19.754Z,16.1
2023-01-19T15:01:45.502Z,16.2
2023-01-19T15:07:19.009Z,16.2
2023-01-19T15:12:26.145Z,16
2023-01-19T15:17:49.082Z,15.9
2023-01-19T15:23:12.076Z,15.8
2023-01-19T15:28:19.997Z,15.4
2023-01-19T15:33:27.870Z,15.4
2023-01-19T15:38:36.428Z,15.1
2023-01-19T15:43:27.714Z,15.3
2023-01-19T15:48:20.567Z,15.2
2023-01-19T15:53:27.960Z,15.1
2023-01-19T15:58:20.297Z,14.9
2023-01-19T16:03:43.389Z,14.6
2023-01-19T16:09:09.187Z,14.9
2023-01-19T16:14:34.048Z,14.7
2023-01-19T16:19:56.480Z,14.6
2023-01-19T16:25:33.430Z,14.4
2023-01-19T16:30:41.038Z,14.4
2023-01-19T16:36:03.142Z,14.3
2023-01-19T16:41:13.010Z,12.6
2023-01-19T16:46:37.808Z,12.3
2023-01-19T16:51:59.928Z,12.1
2023-01-19T16:57:22.943Z,11.8
2023-01-19T17:02:31.355Z,11.6
2023-01-19T17:07:53.782Z,11.2
2023-01-19T17:13:16.889Z,10.6
2023-01-19T17:18:39.568Z,10.5
2023-01-19T17:23:46.304Z,10.3
2023-01-19T17:28:53.768Z,10.4
2023-01-19T17:34:01.988Z,10.5
2023-01-19T17:39:09.292Z,10.6
2023-01-19T17:44:16.676Z,10.8
2023-01-19T17:49:07.800Z,11.1
2023-01-19T17:54:03.009Z,11.1
2023-01-19T17:59:09.589Z,10.9
2023-01-19T18:04:35.190Z,10.6
2023-01-19T18:10:01.029Z,10.4
2023-01-19T18:15:09.367Z,9.9
2023-01-19T18:20:33.997Z,9.8
2023-01-19T18:25:58.680Z,9.7
2023-01-19T18:31:07.681Z,9.8
2023-01-19T18:36:32.773Z,9.3
2023-01-19T18:41:58.964Z,8.8
2023-01-19T18:47:24.379Z,8.5
2023-01-19T18:52:59.570Z,8
2023-01-19T18:58:35.938Z,8.2
2023-01-19T19:04:18.161Z,8.3
2023-01-19T19:09:41.110Z,8.7
2023-01-19T19:15:16.603Z,8.6
2023-01-19T19:20:36.298Z,8.4
2023-01-19T19:25:55.542Z,8.3
2023-01-19T19:31:17.302Z,8.3
2023-01-19T19:36:38.523Z,7.7
2023-01-19T19:42:19.868Z,7.6
2023-01-19T19:48:01.690Z,8.3
2023-01-19T19:53:35.813Z,8.3
2023-01-19T19:59:14.157Z,8.1
2023-01-19T20:04:38.686Z,8.5
2023-01-19T20:10:19.997Z,8.6
2023-01-19T20:15:46.888Z,8.7
2023-01-19T20:21:27.028Z,8.8
2023-01-19T20:26:47.276Z,8.3
2023-01-19T20:32:05.115Z,8
2023-01-19T20:42:47.516Z,8.3
2023-01-19T20:47:59.026Z,8.4
2023-01-19T20:52:53.675Z,8.4
2023-01-19T20:58:04.435Z,8.2
2023-01-19T21:03:20.713Z,8.3
2023-01-19T21:08:31.048Z,8.3
2023-01-19T21:13:44.222Z,8.1
2023-01-19T21:18:54.507Z,8.3
2023-01-19T21:23:55.186Z,8.3
2023-01-19T21:29:18.524Z,8
2023-01-19T21:34:11.148Z,7.9
2023-01-19T21:39:03.092Z,7.3
2023-01-19T21:44:10.738Z,7.7
2023-01-19T21:49:18.133Z,7.6
2023-01-19T21:54:25.419Z,7.7
2023-01-19T21:59:32.501Z,7.6
2023-01-19T22:05:06.741Z,7.4
2023-01-19T22:10:14.069Z,7.5
2023-01-19T22:15:38.554Z,7.4
2023-01-19T22:20:30.562Z,7.3
2023-01-19T22:25:22.615Z,7.1
2023-01-19T22:30:29.926Z,7.3
2023-01-19T22:35:53.386Z,7.2
2023-01-19T22:41:16.918Z,7.1
2023-01-19T22:46:41.902Z,7
2023-01-19T22:51:48.986Z,6.9
2023-01-19T22:57:12.075Z,6.9
2023-01-19T23:02:20.741Z,6.9
2023-01-19T23:07:43.660Z,6.9
2023-01-19T23:13:06.330Z,6.9
2023-01-19T23:17:57.726Z,6.8
2023-01-19T23:23:20.774Z,6.8
2023-01-19T23:28:28.334Z,6.8
2023-01-19T23:33:50.657Z,6.7
2023-01-19T23:39:13.366Z,6.6
2023-01-19T23:44:35.304Z,6.9
2023-01-19T23:49:42.489Z,6.8
2023-01-19T23:54:33.979Z,6.4
2023-01-19T23:59:25.349Z,6.3
